sensor_id;sensor_type;location;lat;lon;timestamp;temperature;humidity
8832;DHT22;4452;50.756;4.472;2022-10-16T00:00:39;13.30;99.90
8832;DHT22;4452;50.756;4.472;2022-10-16T00:03:05;13.30;99.90
8832;DHT22;4452;50.756;4.472;2022-10-16T00:05:32;13.30;99.90
8832;DHT22;4452;50.756;4.472;2022-10-16T00:07:58;13.30;99.90
8832;DHT22;4452;50.756;4.472;2022-10-16T00:10:24;13.40;99.90
8832;DHT22;4452;50.756;4.472;2022-10-16T00:12:50;13.50;99.90
8832;DHT22;4452;50.756;4.472;2022-10-16T00:15:15;13.50;99.90
8832;DHT22;4452;50.756;4.472;2022-10-16T00:17:41;13.40;99.90
8832;DHT22;4452;50.756;4.472;2022-10-16T00:20:07;13.40;99.90
8832;DHT22;4452;50.756;4.472;2022-10-16T00:22:33;13.30;99.90
8832;DHT22;4452;50.756;4.472;2022-10-16T00:24:59;13.30;99.90
8832;DHT22;4452;50.756;4.472;2022-10-16T00:27:24;13.30;99.90
8832;DHT22;4452;50.756;4.472;2022-10-16T00:29:51;13.30;99.90
8832;DHT22;4452;50.756;4.472;2022-10-16T00:32:18;13.30;99.90
8832;DHT22;4452;50.756;4.472;2022-10-16T00:34:44;13.30;99.90
8832;DHT22;4452;50.756;4.472;2022-10-16T00:37:10;13.20;99.90
8832;DHT22;4452;50.756;4.472;2022-10-16T00:39:36;13.20;99.90
8832;DHT22;4452;50.756;4.472;2022-10-16T00:42:02;13.20;99.90
8832;DHT22;4452;50.756;4.472;2022-10-16T00:47:20;13.10;99.90
8832;DHT22;4452;50.756;4.472;2022-10-16T00:49:48;13.10;99.90
8832;DHT22;4452;50.756;4.472;2022-10-16T00:52:14;13.10;99.90
8832;DHT22;4452;50.756;4.472;2022-10-16T00:54:40;13.00;99.90
8832;DHT22;4452;50.756;4.472;2022-10-16T00:57:06;13.00;99.90
8832;DHT22;4452;50.756;4.472;2022-10-16T00:59:38;12.90;99.90
8832;DHT22;4452;50.756;4.472;2022-10-16T01:02:06;13.00;99.90
8832;DHT22;4452;50.756;4.472;2022-10-16T01:04:37;12.90;99.90
8832;DHT22;4452;50.756;4.472;2022-10-16T01:07:11;13.00;99.90
8832;DHT22;4452;50.756;4.472;2022-10-16T01:09:42;12.90;99.90
8832;DHT22;4452;50.756;4.472;2022-10-16T01:12:36;12.90;99.90
8832;DHT22;4452;50.756;4.472;2022-10-16T01:15:26;12.90;99.90
8832;DHT22;4452;50.756;4.472;2022-10-16T01:20:29;13.00;99.90
8832;DHT22;4452;50.756;4.472;2022-10-16T01:31:15;12.90;99.90
8832;DHT22;4452;50.756;4.472;2022-10-16T01:33:45;12.90;99.90
8832;DHT22;4452;50.756;4.472;2022-10-16T01:36:18;12.90;99.90
8832;DHT22;4452;50.756;4.472;2022-10-16T01:38:49;12.90;99.90
8832;DHT22;4452;50.756;4.472;2022-10-16T01:41:30;12.80;99.90
8832;DHT22;4452;50.756;4.472;2022-10-16T01:44:08;12.80;99.90
8832;DHT22;4452;50.756;4.472;2022-10-16T01:46:39;12.80;99.90
8832;DHT22;4452;50.756;4.472;2022-10-16T01:49:06;12.80;99.90
8832;DHT22;4452;50.756;4.472;2022-10-16T01:51:35;12.80;99.90
8832;DHT22;4452;50.756;4.472;2022-10-16T01:54:02;12.80;99.90
8832;DHT22;4452;50.756;4.472;2022-10-16T01:56:29;12.80;99.90
8832;DHT22;4452;50.756;4.472;2022-10-16T01:59:00;12.80;99.90
8832;DHT22;4452;50.756;4.472;2022-10-16T02:01:29;12.80;99.90
8832;DHT22;4452;50.756;4.472;2022-10-16T02:03:58;12.80;99.90
8832;DHT22;4452;50.756;4.472;2022-10-16T02:06:24;12.80;99.90
8832;DHT22;4452;50.756;4.472;2022-10-16T02:08:51;12.80;99.90
8832;DHT22;4452;50.756;4.472;2022-10-16T02:11:17;12.70;99.90
8832;DHT22;4452;50.756;4.472;2022-10-16T02:13:49;12.70;99.90
8832;DHT22;4452;50.756;4.472;2022-10-16T02:16:15;12.80;99.90
8832;DHT22;4452;50.756;4.472;2022-10-16T02:18:42;12.80;99.90
8832;DHT22;4452;50.756;4.472;2022-10-16T02:21:25;12.80;99.90
8832;DHT22;4452;50.756;4.472;2022-10-16T02:24:08;12.80;99.90
8832;DHT22;4452;50.756;4.472;2022-10-16T02:26:55;12.80;99.90
8832;DHT22;4452;50.756;4.472;2022-10-16T02:29:25;12.80;99.90
8832;DHT22;4452;50.756;4.472;2022-10-16T02:31:55;12.80;99.90
8832;DHT22;4452;50.756;4.472;2022-10-16T02:34:24;12.80;99.90
8832;DHT22;4452;50.756;4.472;2022-10-16T02:36:51;12.80;99.90
8832;DHT22;4452;50.756;4.472;2022-10-16T02:39:18;12.70;99.90
8832;DHT22;4452;50.756;4.472;2022-10-16T02:41:45;12.70;99.90
8832;DHT22;4452;50.756;4.472;2022-10-16T02:44:10;12.70;99.90
8832;DHT22;4452;50.756;4.472;2022-10-16T02:46:36;12.70;99.90
8832;DHT22;4452;50.756;4.472;2022-10-16T02:49:02;12.80;99.90
8832;DHT22;4452;50.756;4.472;2022-10-16T02:51:27;12.80;99.90
8832;DHT22;4452;50.756;4.472;2022-10-16T02:53:53;12.80;99.90
8832;DHT22;4452;50.756;4.472;2022-10-16T02:56:19;12.80;99.90
8832;DHT22;4452;50.756;4.472;2022-10-16T02:58:44;12.80;99.90
8832;DHT22;4452;50.756;4.472;2022-10-16T03:01:10;12.70;99.90
8832;DHT22;4452;50.756;4.472;2022-10-16T03:03:38;12.80;99.90
8832;DHT22;4452;50.756;4.472;2022-10-16T03:06:04;12.70;99.90
8832;DHT22;4452;50.756;4.472;2022-10-16T03:08:29;12.70;99.90
8832;DHT22;4452;50.756;4.472;2022-10-16T03:10:55;12.80;99.90
8832;DHT22;4452;50.756;4.472;2022-10-16T03:13:21;12.80;99.90
8832;DHT22;4452;50.756;4.472;2022-10-16T03:15:46;12.70;99.90
8832;DHT22;4452;50.756;4.472;2022-10-16T03:18:12;12.80;99.90
8832;DHT22;4452;50.756;4.472;2022-10-16T03:20:38;12.80;99.90
8832;DHT22;4452;50.756;4.472;2022-10-16T03:23:04;12.80;99.90
8832;DHT22;4452;50.756;4.472;2022-10-16T03:25:30;12.70;99.90
8832;DHT22;4452;50.756;4.472;2022-10-16T03:27:55;12.70;99.90
8832;DHT22;4452;50.756;4.472;2022-10-16T03:30:21;12.70;99.90
8832;DHT22;4452;50.756;4.472;2022-10-16T03:32:47;12.80;99.90
8832;DHT22;4452;50.756;4.472;2022-10-16T03:35:12;12.70;99.90
8832;DHT22;4452;50.756;4.472;2022-10-16T03:37:38;12.70;99.90
8832;DHT22;4452;50.756;4.472;2022-10-16T03:40:04;12.70;99.90
8832;DHT22;4452;50.756;4.472;2022-10-16T03:42:30;12.70;99.90
8832;DHT22;4452;50.756;4.472;2022-10-16T03:44:56;12.70;99.90
8832;DHT22;4452;50.756;4.472;2022-10-16T03:47:21;12.70;99.90
8832;DHT22;4452;50.756;4.472;2022-10-16T03:49:49;12.60;99.90
8832;DHT22;4452;50.756;4.472;2022-10-16T03:52:15;12.70;99.90
8832;DHT22;4452;50.756;4.472;2022-10-16T03:54:41;12.70;99.90
8832;DHT22;4452;50.756;4.472;2022-10-16T03:57:07;12.70;99.90
8832;DHT22;4452;50.756;4.472;2022-10-16T03:59:33;12.70;99.90
8832;DHT22;4452;50.756;4.472;2022-10-16T04:01:58;12.70;99.90
8832;DHT22;4452;50.756;4.472;2022-10-16T04:04:24;12.70;99.90
8832;DHT22;4452;50.756;4.472;2022-10-16T04:06:50;12.80;99.90
8832;DHT22;4452;50.756;4.472;2022-10-16T04:09:16;12.70;99.90
8832;DHT22;4452;50.756;4.472;2022-10-16T04:11:42;12.70;99.90
8832;DHT22;4452;50.756;4.472;2022-10-16T04:14:08;12.70;99.90
8832;DHT22;4452;50.756;4.472;2022-10-16T04:16:34;12.70;99.90
8832;DHT22;4452;50.756;4.472;2022-10-16T04:18:59;12.80;99.90
8832;DHT22;4452;50.756;4.472;2022-10-16T04:21:25;12.80;99.90
8832;DHT22;4452;50.756;4.472;2022-10-16T04:23:51;12.80;99.90
8832;DHT22;4452;50.756;4.472;2022-10-16T04:26:16;12.70;99.90
8832;DHT22;4452;50.756;4.472;2022-10-16T04:28:42;12.70;99.90
8832;DHT22;4452;50.756;4.472;2022-10-16T04:31:08;12.80;99.90
8832;DHT22;4452;50.756;4.472;2022-10-16T04:33:34;12.80;99.90
8832;DHT22;4452;50.756;4.472;2022-10-16T04:36:01;12.80;99.90
8832;DHT22;4452;50.756;4.472;2022-10-16T04:38:27;12.80;99.90
8832;DHT22;4452;50.756;4.472;2022-10-16T04:40:53;12.70;99.90
8832;DHT22;4452;50.756;4.472;2022-10-16T04:43:19;12.70;99.90
8832;DHT22;4452;50.756;4.472;2022-10-16T04:45:45;12.70;99.90
8832;DHT22;4452;50.756;4.472;2022-10-16T04:48:11;12.60;99.90
8832;DHT22;4452;50.756;4.472;2022-10-16T04:50:37;12.60;99.90
8832;DHT22;4452;50.756;4.472;2022-10-16T04:53:02;12.60;99.90
8832;DHT22;4452;50.756;4.472;2022-10-16T04:55:29;12.60;99.90
8832;DHT22;4452;50.756;4.472;2022-10-16T04:57:55;12.60;99.90
8832;DHT22;4452;50.756;4.472;2022-10-16T05:00:20;12.60;99.90
8832;DHT22;4452;50.756;4.472;2022-10-16T05:02:49;12.50;99.90
8832;DHT22;4452;50.756;4.472;2022-10-16T05:05:14;12.50;99.90
8832;DHT22;4452;50.756;4.472;2022-10-16T05:07:40;12.50;99.90
8832;DHT22;4452;50.756;4.472;2022-10-16T05:10:06;12.50;99.90
8832;DHT22;4452;50.756;4.472;2022-10-16T05:12:32;12.50;99.90
8832;DHT22;4452;50.756;4.472;2022-10-16T05:14:58;12.50;99.90
8832;DHT22;4452;50.756;4.472;2022-10-16T05:17:25;12.50;99.90
8832;DHT22;4452;50.756;4.472;2022-10-16T05:19:51;12.50;99.90
8832;DHT22;4452;50.756;4.472;2022-10-16T05:22:17;12.50;99.90
8832;DHT22;4452;50.756;4.472;2022-10-16T05:24:43;12.50;99.90
8832;DHT22;4452;50.756;4.472;2022-10-16T05:27:10;12.50;99.90
8832;DHT22;4452;50.756;4.472;2022-10-16T05:29:36;12.40;99.90
8832;DHT22;4452;50.756;4.472;2022-10-16T05:32:02;12.50;99.90
8832;DHT22;4452;50.756;4.472;2022-10-16T05:34:28;12.50;99.90
8832;DHT22;4452;50.756;4.472;2022-10-16T05:36:53;12.50;99.90
8832;DHT22;4452;50.756;4.472;2022-10-16T05:39:19;12.40;99.90
8832;DHT22;4452;50.756;4.472;2022-10-16T05:41:45;12.40;99.90
8832;DHT22;4452;50.756;4.472;2022-10-16T05:44:11;12.40;99.90
8832;DHT22;4452;50.756;4.472;2022-10-16T05:46:37;12.30;99.90
8832;DHT22;4452;50.756;4.472;2022-10-16T05:49:03;12.30;99.90
8832;DHT22;4452;50.756;4.472;2022-10-16T05:51:28;12.30;99.90
8832;DHT22;4452;50.756;4.472;2022-10-16T05:53:54;12.40;99.90
8832;DHT22;4452;50.756;4.472;2022-10-16T05:56:19;12.30;99.90
8832;DHT22;4452;50.756;4.472;2022-10-16T05:58:45;12.30;99.90
8832;DHT22;4452;50.756;4.472;2022-10-16T06:01:17;12.30;99.90
8832;DHT22;4452;50.756;4.472;2022-10-16T06:03:43;12.40;99.90
8832;DHT22;4452;50.756;4.472;2022-10-16T06:06:16;12.30;99.90
8832;DHT22;4452;50.756;4.472;2022-10-16T06:08:44;12.30;99.90
8832;DHT22;4452;50.756;4.472;2022-10-16T06:11:13;12.30;99.90
8832;DHT22;4452;50.756;4.472;2022-10-16T06:13:40;12.40;99.90
8832;DHT22;4452;50.756;4.472;2022-10-16T06:16:08;12.40;99.90
8832;DHT22;4452;50.756;4.472;2022-10-16T06:18:33;12.30;99.90
8832;DHT22;4452;50.756;4.472;2022-10-16T06:20:59;12.40;99.90
8832;DHT22;4452;50.756;4.472;2022-10-16T06:23:25;12.40;99.90
8832;DHT22;4452;50.756;4.472;2022-10-16T06:25:51;12.40;99.90
8832;DHT22;4452;50.756;4.472;2022-10-16T06:28:16;12.40;99.90
8832;DHT22;4452;50.756;4.472;2022-10-16T06:30:42;12.40;99.90
8832;DHT22;4452;50.756;4.472;2022-10-16T06:33:11;12.40;99.90
8832;DHT22;4452;50.756;4.472;2022-10-16T06:35:37;12.40;99.90
8832;DHT22;4452;50.756;4.472;2022-10-16T06:38:03;12.40;99.90
8832;DHT22;4452;50.756;4.472;2022-10-16T06:40:28;12.40;99.90
8832;DHT22;4452;50.756;4.472;2022-10-16T06:42:57;12.40;99.90
8832;DHT22;4452;50.756;4.472;2022-10-16T06:45:23;12.50;99.90
8832;DHT22;4452;50.756;4.472;2022-10-16T06:47:48;12.50;99.90
8832;DHT22;4452;50.756;4.472;2022-10-16T06:50:14;12.50;99.90
8832;DHT22;4452;50.756;4.472;2022-10-16T06:52:40;12.60;99.90
8832;DHT22;4452;50.756;4.472;2022-10-16T06:55:05;12.70;99.90
8832;DHT22;4452;50.756;4.472;2022-10-16T06:57:31;12.70;99.90
8832;DHT22;4452;50.756;4.472;2022-10-16T06:59:57;12.80;99.90
8832;DHT22;4452;50.756;4.472;2022-10-16T07:02:22;12.90;99.90
8832;DHT22;4452;50.756;4.472;2022-10-16T07:04:48;12.90;99.90
8832;DHT22;4452;50.756;4.472;2022-10-16T07:07:14;13.00;99.90
8832;DHT22;4452;50.756;4.472;2022-10-16T07:09:40;13.00;99.90
8832;DHT22;4452;50.756;4.472;2022-10-16T07:12:05;13.10;99.90
8832;DHT22;4452;50.756;4.472;2022-10-16T07:14:31;13.20;99.90
8832;DHT22;4452;50.756;4.472;2022-10-16T07:16:57;13.30;99.90
8832;DHT22;4452;50.756;4.472;2022-10-16T07:19:22;13.40;99.90
8832;DHT22;4452;50.756;4.472;2022-10-16T07:21:48;13.50;99.90
8832;DHT22;4452;50.756;4.472;2022-10-16T07:24:15;13.60;99.90
8832;DHT22;4452;50.756;4.472;2022-10-16T07:26:42;13.60;99.90
8832;DHT22;4452;50.756;4.472;2022-10-16T07:29:20;13.70;99.90
8832;DHT22;4452;50.756;4.472;2022-10-16T07:31:46;13.80;99.90
8832;DHT22;4452;50.756;4.472;2022-10-16T07:34:13;13.90;99.90
8832;DHT22;4452;50.756;4.472;2022-10-16T07:36:39;13.90;99.90
8832;DHT22;4452;50.756;4.472;2022-10-16T07:39:05;14.00;99.90
8832;DHT22;4452;50.756;4.472;2022-10-16T07:41:31;14.10;99.90
8832;DHT22;4452;50.756;4.472;2022-10-16T07:43:58;14.20;99.90
8832;DHT22;4452;50.756;4.472;2022-10-16T07:46:27;14.40;99.90
8832;DHT22;4452;50.756;4.472;2022-10-16T07:48:53;14.40;99.90
8832;DHT22;4452;50.756;4.472;2022-10-16T07:51:20;14.50;99.90
8832;DHT22;4452;50.756;4.472;2022-10-16T07:53:47;14.60;99.90
8832;DHT22;4452;50.756;4.472;2022-10-16T07:56:13;14.60;99.90
8832;DHT22;4452;50.756;4.472;2022-10-16T07:58:39;14.70;99.90
8832;DHT22;4452;50.756;4.472;2022-10-16T08:01:10;14.70;99.90
8832;DHT22;4452;50.756;4.472;2022-10-16T08:03:36;14.80;99.90
8832;DHT22;4452;50.756;4.472;2022-10-16T08:06:02;14.80;99.90
8832;DHT22;4452;50.756;4.472;2022-10-16T08:08:29;14.90;99.90
8832;DHT22;4452;50.756;4.472;2022-10-16T08:10:55;14.90;99.90
8832;DHT22;4452;50.756;4.472;2022-10-16T08:13:22;15.00;99.90
8832;DHT22;4452;50.756;4.472;2022-10-16T08:15:48;15.10;99.90
8832;DHT22;4452;50.756;4.472;2022-10-16T08:18:14;15.20;99.90
8832;DHT22;4452;50.756;4.472;2022-10-16T08:20:41;15.30;99.90
8832;DHT22;4452;50.756;4.472;2022-10-16T08:23:09;15.30;99.90
8832;DHT22;4452;50.756;4.472;2022-10-16T08:25:36;15.30;99.90
8832;DHT22;4452;50.756;4.472;2022-10-16T08:28:08;15.40;99.90
8832;DHT22;4452;50.756;4.472;2022-10-16T08:30:34;15.50;99.90
8832;DHT22;4452;50.756;4.472;2022-10-16T08:33:00;15.50;99.90
8832;DHT22;4452;50.756;4.472;2022-10-16T08:35:26;15.50;99.90
8832;DHT22;4452;50.756;4.472;2022-10-16T08:37:51;15.50;99.90
8832;DHT22;4452;50.756;4.472;2022-10-16T08:40:27;15.60;99.90
8832;DHT22;4452;50.756;4.472;2022-10-16T08:51:04;15.90;99.90
8832;DHT22;4452;50.756;4.472;2022-10-16T08:53:46;16.00;99.90
8832;DHT22;4452;50.756;4.472;2022-10-16T08:56:14;16.00;99.90
8832;DHT22;4452;50.756;4.472;2022-10-16T08:58:40;16.00;99.90
8832;DHT22;4452;50.756;4.472;2022-10-16T09:01:12;16.20;99.90
8832;DHT22;4452;50.756;4.472;2022-10-16T09:06:26;16.30;99.90
8832;DHT22;4452;50.756;4.472;2022-10-16T09:09:21;16.30;99.90
8832;DHT22;4452;50.756;4.472;2022-10-16T09:19:46;16.60;99.90
8832;DHT22;4452;50.756;4.472;2022-10-16T09:22:16;16.60;99.90
8832;DHT22;4452;50.756;4.472;2022-10-16T09:24:41;16.70;99.90
8832;DHT22;4452;50.756;4.472;2022-10-16T09:27:11;16.80;99.90
8832;DHT22;4452;50.756;4.472;2022-10-16T09:29:37;16.90;99.90
8832;DHT22;4452;50.756;4.472;2022-10-16T09:32:12;16.80;99.90
8832;DHT22;4452;50.756;4.472;2022-10-16T09:34:45;16.80;99.90
8832;DHT22;4452;50.756;4.472;2022-10-16T09:37:15;16.80;99.90
8832;DHT22;4452;50.756;4.472;2022-10-16T09:39:46;16.90;99.90
8832;DHT22;4452;50.756;4.472;2022-10-16T09:42:30;17.00;99.90
8832;DHT22;4452;50.756;4.472;2022-10-16T09:44:56;17.10;99.90
8832;DHT22;4452;50.756;4.472;2022-10-16T09:47:30;17.30;99.90
8832;DHT22;4452;50.756;4.472;2022-10-16T09:49:58;17.30;99.90
8832;DHT22;4452;50.756;4.472;2022-10-16T09:52:28;17.10;99.90
8832;DHT22;4452;50.756;4.472;2022-10-16T09:54:55;17.20;99.90
8832;DHT22;4452;50.756;4.472;2022-10-16T09:57:21;17.30;99.90
8832;DHT22;4452;50.756;4.472;2022-10-16T09:59:55;17.30;99.90
8832;DHT22;4452;50.756;4.472;2022-10-16T10:02:30;17.30;99.90
8832;DHT22;4452;50.756;4.472;2022-10-16T10:04:58;17.40;99.90
8832;DHT22;4452;50.756;4.472;2022-10-16T10:07:26;17.60;99.90
8832;DHT22;4452;50.756;4.472;2022-10-16T10:09:54;17.70;99.90
8832;DHT22;4452;50.756;4.472;2022-10-16T10:12:26;17.50;99.90
8832;DHT22;4452;50.756;4.472;2022-10-16T10:14:54;17.60;99.90
8832;DHT22;4452;50.756;4.472;2022-10-16T10:17:21;17.70;99.90
8832;DHT22;4452;50.756;4.472;2022-10-16T10:22:41;17.80;99.90
8832;DHT22;4452;50.756;4.472;2022-10-16T10:30:40;18.20;99.90
8832;DHT22;4452;50.756;4.472;2022-10-16T10:41:22;18.20;99.90
8832;DHT22;4452;50.756;4.472;2022-10-16T10:46:35;18.40;99.90
8832;DHT22;4452;50.756;4.472;2022-10-16T10:57:56;18.20;99.90
8832;DHT22;4452;50.756;4.472;2022-10-16T11:03:25;18.10;99.90
8832;DHT22;4452;50.756;4.472;2022-10-16T11:05:56;17.90;99.90
8832;DHT22;4452;50.756;4.472;2022-10-16T11:08:47;18.10;99.90
8832;DHT22;4452;50.756;4.472;2022-10-16T11:27:15;17.60;99.90
8832;DHT22;4452;50.756;4.472;2022-10-16T11:30:04;17.50;99.90
8832;DHT22;4452;50.756;4.472;2022-10-16T11:32:35;17.60;99.90
8832;DHT22;4452;50.756;4.472;2022-10-16T11:35:24;17.70;99.90
8832;DHT22;4452;50.756;4.472;2022-10-16T11:37:52;18.00;99.90
8832;DHT22;4452;50.756;4.472;2022-10-16T11:40:23;17.90;99.90
8832;DHT22;4452;50.756;4.472;2022-10-16T11:42:56;17.80;99.90
8832;DHT22;4452;50.756;4.472;2022-10-16T11:45:33;18.00;99.90
8832;DHT22;4452;50.756;4.472;2022-10-16T11:48:35;17.90;99.90
8832;DHT22;4452;50.756;4.472;2022-10-16T11:54:16;17.70;99.90
8832;DHT22;4452;50.756;4.472;2022-10-16T11:56:47;17.80;99.90
8832;DHT22;4452;50.756;4.472;2022-10-16T11:59:20;18.00;99.90
8832;DHT22;4452;50.756;4.472;2022-10-16T12:08:16;18.70;99.90
8832;DHT22;4452;50.756;4.472;2022-10-16T12:10:44;18.80;99.90
8832;DHT22;4452;50.756;4.472;2022-10-16T12:13:38;18.60;99.90
8832;DHT22;4452;50.756;4.472;2022-10-16T12:16:21;18.60;99.90
8832;DHT22;4452;50.756;4.472;2022-10-16T12:18:47;19.20;99.90
8832;DHT22;4452;50.756;4.472;2022-10-16T12:21:15;19.10;99.90
8832;DHT22;4452;50.756;4.472;2022-10-16T12:23:52;19.20;99.90
8832;DHT22;4452;50.756;4.472;2022-10-16T12:26:27;19.20;99.90
8832;DHT22;4452;50.756;4.472;2022-10-16T12:28:54;18.80;99.90
8832;DHT22;4452;50.756;4.472;2022-10-16T12:31:21;18.70;99.90
8832;DHT22;4452;50.756;4.472;2022-10-16T12:34:02;18.70;99.90
8832;DHT22;4452;50.756;4.472;2022-10-16T12:36:32;18.70;99.90
8832;DHT22;4452;50.756;4.472;2022-10-16T12:38:58;18.70;99.90
8832;DHT22;4452;50.756;4.472;2022-10-16T12:43:52;19.10;99.90
8832;DHT22;4452;50.756;4.472;2022-10-16T12:48:44;18.80;99.90
8832;DHT22;4452;50.756;4.472;2022-10-16T12:51:56;18.90;99.90
8832;DHT22;4452;50.756;4.472;2022-10-16T13:05:09;18.90;99.90
8832;DHT22;4452;50.756;4.472;2022-10-16T13:24:18;18.90;99.90
8832;DHT22;4452;50.756;4.472;2022-10-16T13:29:37;19.00;99.90
8832;DHT22;4452;50.756;4.472;2022-10-16T13:32:14;19.30;99.90
8832;DHT22;4452;50.756;4.472;2022-10-16T13:34:48;19.60;99.90
8832;DHT22;4452;50.756;4.472;2022-10-16T13:37:23;20.00;99.90
8832;DHT22;4452;50.756;4.472;2022-10-16T13:39:49;20.80;99.90
8832;DHT22;4452;50.756;4.472;2022-10-16T13:42:26;20.30;99.90
8832;DHT22;4452;50.756;4.472;2022-10-16T13:44:55;19.70;99.90
8832;DHT22;4452;50.756;4.472;2022-10-16T13:47:26;19.60;99.90
8832;DHT22;4452;50.756;4.472;2022-10-16T13:50:12;19.50;99.90
8832;DHT22;4452;50.756;4.472;2022-10-16T13:52:39;19.40;99.90
8832;DHT22;4452;50.756;4.472;2022-10-16T13:55:11;19.50;99.90
8832;DHT22;4452;50.756;4.472;2022-10-16T13:57:37;19.50;99.90
8832;DHT22;4452;50.756;4.472;2022-10-16T14:00:03;19.40;99.90
8832;DHT22;4452;50.756;4.472;2022-10-16T14:02:42;19.40;99.90
8832;DHT22;4452;50.756;4.472;2022-10-16T14:05:09;19.30;99.90
8832;DHT22;4452;50.756;4.472;2022-10-16T14:07:36;19.50;99.90
8832;DHT22;4452;50.756;4.472;2022-10-16T14:10:06;19.20;99.90
8832;DHT22;4452;50.756;4.472;2022-10-16T14:12:33;19.10;99.90
8832;DHT22;4452;50.756;4.472;2022-10-16T14:14:59;19.00;99.90
8832;DHT22;4452;50.756;4.472;2022-10-16T14:17:29;19.00;99.90
8832;DHT22;4452;50.756;4.472;2022-10-16T14:20:00;19.40;99.90
8832;DHT22;4452;50.756;4.472;2022-10-16T14:22:39;19.40;99.90
8832;DHT22;4452;50.756;4.472;2022-10-16T14:27:45;19.60;99.90
8832;DHT22;4452;50.756;4.472;2022-10-16T14:30:24;19.60;99.90
8832;DHT22;4452;50.756;4.472;2022-10-16T14:33:20;19.60;99.90
8832;DHT22;4452;50.756;4.472;2022-10-16T14:35:46;19.70;99.90
8832;DHT22;4452;50.756;4.472;2022-10-16T14:38:22;20.00;99.90
8832;DHT22;4452;50.756;4.472;2022-10-16T14:40:49;20.20;99.90
8832;DHT22;4452;50.756;4.472;2022-10-16T14:43:21;20.20;99.90
8832;DHT22;4452;50.756;4.472;2022-10-16T14:45:53;20.00;99.90
8832;DHT22;4452;50.756;4.472;2022-10-16T14:48:20;19.80;99.90
8832;DHT22;4452;50.756;4.472;2022-10-16T14:50:46;19.60;99.90
8832;DHT22;4452;50.756;4.472;2022-10-16T14:53:12;19.70;99.90
8832;DHT22;4452;50.756;4.472;2022-10-16T14:55:39;19.40;99.90
8832;DHT22;4452;50.756;4.472;2022-10-16T14:58:06;19.30;99.90
8832;DHT22;4452;50.756;4.472;2022-10-16T15:00:33;19.20;99.90
8832;DHT22;4452;50.756;4.472;2022-10-16T15:02:58;19.00;99.90
8832;DHT22;4452;50.756;4.472;2022-10-16T15:05:26;19.20;99.90
8832;DHT22;4452;50.756;4.472;2022-10-16T15:07:53;19.30;99.90
8832;DHT22;4452;50.756;4.472;2022-10-16T15:10:21;19.20;99.90
8832;DHT22;4452;50.756;4.472;2022-10-16T15:12:48;19.20;99.90
8832;DHT22;4452;50.756;4.472;2022-10-16T15:17:52;19.40;99.90
8832;DHT22;4452;50.756;4.472;2022-10-16T15:20:19;19.40;99.90
8832;DHT22;4452;50.756;4.472;2022-10-16T15:22:45;19.20;99.90
8832;DHT22;4452;50.756;4.472;2022-10-16T15:25:31;19.00;99.90
8832;DHT22;4452;50.756;4.472;2022-10-16T15:27:58;19.00;99.90
8832;DHT22;4452;50.756;4.472;2022-10-16T15:30:24;18.90;99.90
8832;DHT22;4452;50.756;4.472;2022-10-16T15:32:49;18.70;99.90
8832;DHT22;4452;50.756;4.472;2022-10-16T15:35:15;18.50;99.90
8832;DHT22;4452;50.756;4.472;2022-10-16T15:37:41;18.30;99.90
8832;DHT22;4452;50.756;4.472;2022-10-16T15:40:08;18.30;99.90
8832;DHT22;4452;50.756;4.472;2022-10-16T15:42:33;18.30;99.90
8832;DHT22;4452;50.756;4.472;2022-10-16T15:44:59;18.10;99.90
8832;DHT22;4452;50.756;4.472;2022-10-16T15:47:25;18.10;99.90
8832;DHT22;4452;50.756;4.472;2022-10-16T15:49:50;18.10;99.90
8832;DHT22;4452;50.756;4.472;2022-10-16T15:52:16;18.00;99.90
8832;DHT22;4452;50.756;4.472;2022-10-16T15:54:43;17.90;99.90
8832;DHT22;4452;50.756;4.472;2022-10-16T15:57:08;17.80;99.90
8832;DHT22;4452;50.756;4.472;2022-10-16T15:59:34;17.80;99.90
8832;DHT22;4452;50.756;4.472;2022-10-16T16:01:59;17.80;99.90
8832;DHT22;4452;50.756;4.472;2022-10-16T16:04:25;17.70;99.90
8832;DHT22;4452;50.756;4.472;2022-10-16T16:06:51;17.70;99.90
8832;DHT22;4452;50.756;4.472;2022-10-16T16:09:16;17.60;99.90
8832;DHT22;4452;50.756;4.472;2022-10-16T16:11:42;17.60;99.90
8832;DHT22;4452;50.756;4.472;2022-10-16T16:14:11;17.40;99.90
8832;DHT22;4452;50.756;4.472;2022-10-16T16:16:38;17.40;99.90
8832;DHT22;4452;50.756;4.472;2022-10-16T16:19:05;17.30;99.90
8832;DHT22;4452;50.756;4.472;2022-10-16T16:21:32;17.30;99.90
8832;DHT22;4452;50.756;4.472;2022-10-16T16:23:58;17.30;99.90
8832;DHT22;4452;50.756;4.472;2022-10-16T16:28:52;17.20;99.90
8832;DHT22;4452;50.756;4.472;2022-10-16T16:31:18;17.10;99.90
8832;DHT22;4452;50.756;4.472;2022-10-16T16:33:44;17.10;99.90
8832;DHT22;4452;50.756;4.472;2022-10-16T16:36:10;17.00;99.90
8832;DHT22;4452;50.756;4.472;2022-10-16T16:38:35;17.00;99.90
8832;DHT22;4452;50.756;4.472;2022-10-16T16:41:18;17.00;99.90
8832;DHT22;4452;50.756;4.472;2022-10-16T16:43:45;16.90;99.90
8832;DHT22;4452;50.756;4.472;2022-10-16T16:46:10;16.80;99.90
8832;DHT22;4452;50.756;4.472;2022-10-16T16:48:37;16.80;99.90
8832;DHT22;4452;50.756;4.472;2022-10-16T16:51:08;16.80;99.90
8832;DHT22;4452;50.756;4.472;2022-10-16T16:53:35;16.70;99.90
8832;DHT22;4452;50.756;4.472;2022-10-16T16:56:05;16.80;99.90
8832;DHT22;4452;50.756;4.472;2022-10-16T16:58:31;16.70;99.90
8832;DHT22;4452;50.756;4.472;2022-10-16T17:00:57;16.60;99.90
8832;DHT22;4452;50.756;4.472;2022-10-16T17:03:26;16.40;99.90
8832;DHT22;4452;50.756;4.472;2022-10-16T17:06:06;16.40;99.90
8832;DHT22;4452;50.756;4.472;2022-10-16T17:08:33;16.40;99.90
8832;DHT22;4452;50.756;4.472;2022-10-16T17:10:59;16.40;99.90
8832;DHT22;4452;50.756;4.472;2022-10-16T17:13:26;16.20;99.90
8832;DHT22;4452;50.756;4.472;2022-10-16T17:15:52;16.20;99.90
8832;DHT22;4452;50.756;4.472;2022-10-16T17:18:19;16.20;99.90
8832;DHT22;4452;50.756;4.472;2022-10-16T17:20:45;16.10;99.90
8832;DHT22;4452;50.756;4.472;2022-10-16T17:23:12;16.20;99.90
8832;DHT22;4452;50.756;4.472;2022-10-16T17:25:38;16.00;99.90
8832;DHT22;4452;50.756;4.472;2022-10-16T17:28:05;16.00;99.90
8832;DHT22;4452;50.756;4.472;2022-10-16T17:30:31;16.00;99.90
8832;DHT22;4452;50.756;4.472;2022-10-16T17:32:59;16.10;99.90
8832;DHT22;4452;50.756;4.472;2022-10-16T17:35:24;16.00;99.90
8832;DHT22;4452;50.756;4.472;2022-10-16T17:37:54;15.90;99.90
8832;DHT22;4452;50.756;4.472;2022-10-16T17:40:21;15.90;99.90
8832;DHT22;4452;50.756;4.472;2022-10-16T17:42:49;15.90;99.90
8832;DHT22;4452;50.756;4.472;2022-10-16T17:45:17;15.90;99.90
8832;DHT22;4452;50.756;4.472;2022-10-16T17:47:44;15.90;99.90
8832;DHT22;4452;50.756;4.472;2022-10-16T17:50:12;15.80;99.90
8832;DHT22;4452;50.756;4.472;2022-10-16T17:52:38;15.70;99.90
8832;DHT22;4452;50.756;4.472;2022-10-16T17:55:04;15.60;99.90
8832;DHT22;4452;50.756;4.472;2022-10-16T17:57:30;15.60;99.90
8832;DHT22;4452;50.756;4.472;2022-10-16T17:59:56;15.50;99.90
8832;DHT22;4452;50.756;4.472;2022-10-16T18:02:22;15.40;99.90
8832;DHT22;4452;50.756;4.472;2022-10-16T18:04:49;15.50;99.90
8832;DHT22;4452;50.756;4.472;2022-10-16T18:07:15;15.40;99.90
8832;DHT22;4452;50.756;4.472;2022-10-16T18:09:41;15.40;99.90
8832;DHT22;4452;50.756;4.472;2022-10-16T18:12:06;15.30;99.90
8832;DHT22;4452;50.756;4.472;2022-10-16T18:14:33;15.30;99.90
8832;DHT22;4452;50.756;4.472;2022-10-16T18:17:00;15.40;99.90
8832;DHT22;4452;50.756;4.472;2022-10-16T18:19:26;15.50;99.90
8832;DHT22;4452;50.756;4.472;2022-10-16T18:21:52;15.40;99.90